Terminal Aerodrome Forecast
Issued by NWS

Home | Current Version | Previous Version | Text Only | Print | Product List | Glossary On
Versions: 1 2 3 4 5 6 7 8 9 10 11 12 13
000
FTUS46 KHNX 192320
TAFMER
TAF
KMER 192320Z 2000/2024 17009KT P6SM -RA SCT025 OVC040
      TEMPO 2001/2003 5SM -SHRA OVC025
     FM200500 13007KT 5SM BR BKN040
     FM200800 VRB04KT 3SM BR BKN025
     FM201300 13003KT 2SM BR OVC025
     FM202000 16004KT 4SM HZ BKN030=

USA.gov is the U.S. government's official web portal to all federal, state and local government web resources and services.